Time;durP1;ratioP1;P1;durP2;ratioP2;P2;SDS_P1;SDS_P2;PMS_P1;PMS_P2;Temp;Humidity;BMP_temperature;BMP_pressure;BME280_temperature;BME280_humidity;BME280_pressure;Samples;Min_cycle;Max_cycle;Signal;HPM_P1;HPM_P2
2022/05/27 00:02:00;;;;;;;3.95;3.22;;;;;;;10.37;88.24;97540.88;5093298;28;20050;-71
2022/05/27 00:04:25;;;;;;;4.13;3.30;;;;;;;10.32;88.28;97537.84;5094991;28;20142;-69
2022/05/27 00:06:50;;;;;;;6.32;3.25;;;;;;;10.33;88.38;97536.03;5061501;28;20040;-68
2022/05/27 00:09:15;;;;;;;5.03;3.38;;;;;;;10.30;88.67;97539.84;5083685;28;20043;-73
2022/05/27 00:11:40;;;;;;;3.20;2.55;;;;;;;10.30;88.45;97545.16;5058349;28;20502;-72
2022/05/27 00:14:05;;;;;;;4.55;3.45;;;;;;;10.32;88.50;97543.19;5065380;28;20510;-71
2022/05/27 00:16:30;;;;;;;4.65;3.38;;;;;;;10.30;88.80;97545.16;5088702;28;20040;-69
2022/05/27 00:18:55;;;;;;;11.25;3.38;;;;;;;10.30;88.33;97541.66;5068528;28;20088;-74
2022/05/27 00:21:21;;;;;;;4.95;3.47;;;;;;;10.29;88.26;97548.81;5069985;28;20090;-68
2022/05/27 00:23:46;;;;;;;6.05;3.90;;;;;;;10.30;88.45;97537.19;5086390;27;20062;-72
2022/05/27 00:26:11;;;;;;;3.58;2.70;;;;;;;10.32;88.42;97537.84;5069299;28;20046;-76
2022/05/27 00:28:35;;;;;;;3.88;3.03;;;;;;;10.31;88.85;97535.34;5086241;27;20100;-72
2022/05/27 00:31:01;;;;;;;5.00;2.63;;;;;;;10.29;88.73;97538.16;5088913;27;20050;-69
2022/05/27 00:33:25;;;;;;;4.00;2.45;;;;;;;10.26;88.46;97538.50;5070494;28;20552;-74
2022/05/27 00:35:50;;;;;;;4.68;3.20;;;;;;;10.21;88.25;97546.13;5058461;28;20850;-68
2022/05/27 00:38:15;;;;;;;4.85;2.67;;;;;;;10.22;88.07;97547.78;5041745;28;20035;-72
2022/05/27 00:40:43;;;;;;;7.45;3.70;;;;;;;10.24;87.83;97542.31;5094820;28;20050;-72
2022/05/27 00:43:08;;;;;;;3.28;2.97;;;;;;;10.23;87.92;97544.16;5077210;27;20035;-69
2022/05/27 00:45:36;;;;;;;3.72;2.85;;;;;;;10.28;88.57;97543.66;5078140;27;20050;-76
2022/05/27 00:48:03;;;;;;;4.40;3.08;;;;;;;10.26;88.08;97541.16;5078297;28;20394;-72
2022/05/27 00:50:32;;;;;;;3.80;3.20;;;;;;;10.30;88.15;97539.84;5060049;28;20493;-68
2022/05/27 00:52:57;;;;;;;4.40;3.38;;;;;;;10.28;88.14;97546.31;5053833;27;20598;-68
2022/05/27 00:55:27;;;;;;;3.45;2.60;;;;;;;10.32;88.61;97550.34;5080347;27;20461;-69
2022/05/27 00:58:07;;;;;;;6.68;3.30;;;;;;;10.37;88.63;97548.88;5063586;27;20039;-67
2022/05/27 01:00:32;;;;;;;3.38;3.08;;;;;;;10.37;88.28;97542.72;5080251;27;20050;-71
2022/05/27 01:03:00;;;;;;;3.70;3.08;;;;;;;10.36;88.37;97538.38;5098582;27;20386;-68
2022/05/27 01:05:25;;;;;;;3.80;3.35;;;;;;;10.36;88.11;97546.38;5088897;27;20071;-75
2022/05/27 01:07:55;;;;;;;4.70;3.55;;;;;;;10.38;88.21;97550.56;5062173;28;20085;-73
2022/05/27 01:10:20;;;;;;;3.80;3.35;;;;;;;10.37;87.64;97554.22;5065682;27;20066;-69
2022/05/27 01:13:26;;;;;;;5.15;3.38;;;;;;;10.41;88.17;97549.38;5095161;27;20070;-69
2022/05/27 01:16:08;;;;;;;4.20;2.58;;;;;;;10.35;87.95;97545.53;5053482;28;20596;-70
2022/05/27 01:21:37;;;;;;;3.53;2.70;;;;;;;10.30;88.17;97550.50;5082433;27;20113;-71
2022/05/27 01:24:15;;;;;;;3.78;2.97;;;;;;;10.26;88.81;97551.00;5086986;27;20401;-69
2022/05/27 01:27:03;;;;;;;31.63;5.97;;;;;;;10.31;88.65;97556.66;5079580;27;20137;-69
2022/05/27 01:30:05;;;;;;;53.63;7.05;;;;;;;10.32;89.18;97550.34;4986112;28;20054;-68
2022/05/27 01:33:04;;;;;;;5.00;3.35;;;;;;;10.29;88.07;97545.31;4975627;28;20061;-67
2022/05/27 01:36:16;;;;;;;23.35;4.97;;;;;;;10.27;88.81;97550.81;4976134;28;20055;-65
2022/05/27 01:39:02;;;;;;;5.82;3.75;;;;;;;10.24;88.71;97545.81;4906680;28;20414;-69
2022/05/27 01:41:51;;;;;;;3.88;2.47;;;;;;;10.29;88.97;97548.81;4885968;29;20141;-66
2022/05/27 01:44:29;;;;;;;3.03;2.45;;;;;;;10.30;89.17;97553.16;4919080;28;20051;-71
2022/05/27 01:46:55;;;;;;;2.80;2.55;;;;;;;10.26;88.85;97549.16;4921616;28;20102;-69
2022/05/27 01:49:34;;;;;;;3.67;2.97;;;;;;;10.29;88.46;97556.81;4925334;28;20116;-70
2022/05/27 01:52:11;;;;;;;4.22;2.65;;;;;;;10.30;88.38;97553.16;4929542;28;20043;-68
2022/05/27 01:54:47;;;;;;;3.45;2.90;;;;;;;10.35;88.62;97556.19;4923610;28;20055;-72
2022/05/27 01:57:18;;;;;;;2.65;2.45;;;;;;;10.36;88.55;97554.38;4934387;28;20046;-70
2022/05/27 02:00:31;;;;;;;2.80;2.55;;;;;;;10.44;88.59;97565.03;4917708;28;20139;-74
2022/05/27 02:03:02;;;;;;;3.17;2.58;;;;;;;10.44;88.09;97549.06;4898608;29;20119;-75
2022/05/27 02:05:32;;;;;;;3.50;2.25;;;;;;;10.47;88.50;97544.25;4899307;29;20031;-74
2022/05/27 02:08:12;;;;;;;3.83;2.70;;;;;;;10.51;88.05;97550.91;4924672;29;20051;-70
2022/05/27 02:10:43;;;;;;;2.63;2.40;;;;;;;10.52;87.96;97544.59;4923225;29;20569;-68
2022/05/27 02:13:20;;;;;;;7.45;2.20;;;;;;;10.52;87.57;97538.44;4900638;29;20055;-68
2022/05/27 02:15:50;;;;;;;5.13;2.75;;;;;;;10.50;87.85;97541.25;4952451;28;20045;-66
2022/05/27 02:18:44;;;;;;;4.15;3.10;;;;;;;10.48;87.03;97543.28;5012952;28;20072;-66
2022/05/27 02:21:45;;;;;;;5.90;2.83;;;;;;;10.41;87.32;97538.72;4991028;28;20052;-66
2022/05/27 02:24:23;;;;;;;3.35;2.70;;;;;;;10.40;87.49;97545.03;5013750;28;20415;-67
2022/05/27 02:26:55;;;;;;;4.22;2.97;;;;;;;10.36;87.03;97541.03;5013753;28;20054;-67
2022/05/27 02:29:28;;;;;;;2.40;2.20;;;;;;;10.35;87.18;97542.88;4997180;28;20080;-65
2022/05/27 02:31:57;;;;;;;4.93;2.83;;;;;;;10.32;87.00;97545.84;5014063;28;20049;-67
2022/05/27 02:35:08;;;;;;;3.92;2.95;;;;;;;10.27;86.43;97548.13;5014152;28;20088;-66
2022/05/27 02:37:55;;;;;;;3.33;2.20;;;;;;;10.30;87.05;97544.31;4935432;28;20051;-64
2022/05/27 02:40:42;;;;;;;2.50;2.30;;;;;;;10.25;86.90;97542.16;4991564;28;20531;-66
2022/05/27 02:43:35;;;;;;;3.47;3.13;;;;;;;10.22;86.82;97541.63;4993217;28;20852;-66
2022/05/27 02:46:22;;;;;;;2.97;2.60;;;;;;;10.29;87.16;97542.66;4990441;28;20075;-73
2022/05/27 02:49:02;;;;;;;3.55;2.45;;;;;;;10.31;87.22;97544.19;5013695;28;20073;-72
2022/05/27 02:51:52;;;;;;;4.85;2.60;;;;;;;10.40;87.01;97553.88;5014030;28;20079;-75
2022/05/27 02:54:27;;;;;;;4.85;3.53;;;;;;;10.38;86.61;97545.22;4977855;28;20076;-66
2022/05/27 02:57:05;;;;;;;4.15;3.40;;;;;;;10.40;86.21;97548.53;4994006;28;20036;-68
2022/05/27 02:59:31;;;;;;;3.75;3.13;;;;;;;10.39;86.07;97549.53;4993924;28;20120;-69
2022/05/27 03:02:12;;;;;;;6.88;3.30;;;;;;;10.45;85.89;97546.25;4978476;28;20103;-67
2022/05/27 03:04:41;;;;;;;4.75;3.33;;;;;;;10.44;86.13;97547.25;4984215;28;20033;-67
2022/05/27 03:07:11;;;;;;;7.43;3.13;;;;;;;10.44;85.91;97541.91;4987668;28;20539;-68
2022/05/27 03:09:59;;;;;;;3.45;2.85;;;;;;;10.50;85.80;97551.91;4994879;28;20044;-68
2022/05/27 03:12:36;;;;;;;3.38;3.03;;;;;;;10.48;85.83;97548.59;4990315;28;20069;-67
2022/05/27 03:15:51;;;;;;;3.90;3.50;;;;;;;10.61;85.65;97552.66;5076064;27;20042;-68
2022/05/27 03:18:16;;;;;;;3.00;2.67;;;;;;;10.55;85.03;97557.59;4983379;28;20042;-69
2022/05/27 03:20:48;;;;;;;4.45;2.97;;;;;;;10.53;85.10;97551.59;4991800;28;20045;-68
2022/05/27 03:23:47;;;;;;;5.28;3.25;;;;;;;10.60;85.30;97561.63;4992661;28;20045;-66
2022/05/27 03:26:55;;;;;;;3.47;2.85;;;;;;;10.63;85.04;97558.63;4992756;28;20054;-69
2022/05/27 03:29:20;;;;;;;3.67;2.90;;;;;;;10.55;84.62;97557.59;4992910;28;20080;-69
2022/05/27 03:32:11;;;;;;;5.53;3.50;;;;;;;10.59;84.65;97555.47;4993088;28;20065;-68
2022/05/27 03:34:53;;;;;;;3.60;2.85;;;;;;;10.57;84.33;97556.63;4992790;28;20057;-69
2022/05/27 03:37:30;;;;;;;2.80;2.47;;;;;;;10.54;84.22;97558.59;4996576;28;20123;-69
2022/05/27 03:40:00;;;;;;;2.65;2.28;;;;;;;10.50;84.52;97545.75;4980781;28;20512;-69
2022/05/27 03:42:26;;;;;;;3.53;2.85;;;;;;;10.46;84.41;97553.25;4993503;28;20448;-68
2022/05/27 03:45:00;;;;;;;3.45;2.60;;;;;;;10.51;84.32;97552.75;4976385;28;20045;-69
2022/05/27 03:47:25;;;;;;;2.67;2.47;;;;;;;10.51;84.76;97548.25;4992859;28;20050;-68
2022/05/27 03:49:49;;;;;;;2.70;2.47;;;;;;;10.53;85.11;97550.75;4976614;28;20087;-77
2022/05/27 03:52:20;;;;;;;3.17;2.42;;;;;;;10.58;84.49;97543.13;4993624;28;20456;-76
2022/05/27 03:54:44;;;;;;;2.60;2.40;;;;;;;10.57;84.64;97548.63;5074267;28;20146;-76
2022/05/27 03:57:09;;;;;;;2.70;2.50;;;;;;;10.62;84.99;97548.97;5075977;28;20118;-78
2022/05/27 03:59:34;;;;;;;4.13;3.22;;;;;;;10.63;84.57;97550.63;5075803;28;20130;-77
2022/05/27 04:01:59;;;;;;;4.15;3.05;;;;;;;10.67;84.60;97547.50;5040895;28;20055;-78
2022/05/27 04:04:27;;;;;;;4.70;2.95;;;;;;;10.73;84.69;97551.31;5040617;28;20047;-76
2022/05/27 04:06:52;;;;;;;4.20;2.72;;;;;;;10.74;84.18;97545.00;5058128;28;20565;-78
2022/05/27 04:09:19;;;;;;;4.70;2.92;;;;;;;10.74;84.28;97551.16;5040738;28;20460;-77
2022/05/27 04:11:44;;;;;;;5.43;3.50;;;;;;;10.80;84.31;97552.38;5068296;28;20095;-75
2022/05/27 04:14:09;;;;;;;4.40;3.08;;;;;;;10.87;84.54;97543.56;5070904;28;20051;-73
2022/05/27 04:16:34;;;;;;;3.08;2.80;;;;;;;10.96;84.24;97546.22;5072785;28;20036;-76
2022/05/27 04:18:59;;;;;;;5.10;3.42;;;;;;;11.04;84.43;97540.94;5053825;28;20131;-75
2022/05/27 04:21:24;;;;;;;2.75;2.50;;;;;;;11.03;83.14;97541.94;5080094;28;20542;-75
2022/05/27 04:23:49;;;;;;;4.60;3.00;;;;;;;11.06;83.14;97549.63;5027916;28;20039;-76
2022/05/27 04:26:14;;;;;;;5.00;3.63;;;;;;;11.10;83.33;97546.44;5040890;28;20138;-75
2022/05/27 04:28:39;;;;;;;3.45;2.95;;;;;;;11.12;83.59;97548.94;5059284;28;20055;-75
2022/05/27 04:31:04;;;;;;;4.95;3.25;;;;;;;11.13;83.50;97551.44;5058851;28;20044;-72
2022/05/27 04:33:29;;;;;;;3.78;3.35;;;;;;;11.15;83.47;97557.47;5057051;28;20044;-74
2022/05/27 04:35:56;;;;;;;7.40;3.45;;;;;;;11.18;83.07;97554.44;5058679;28;20040;-72
2022/05/27 04:38:22;;;;;;;4.72;3.83;;;;;;;11.16;83.02;97556.47;5057119;28;20046;-73
2022/05/27 04:40:47;;;;;;;6.88;4.00;;;;;;;11.17;82.92;97555.44;5057472;28;20039;-74
2022/05/27 04:43:12;;;;;;;4.00;3.60;;;;;;;11.17;82.83;97555.44;5060319;28;20050;-74
2022/05/27 04:45:37;;;;;;;4.63;3.67;;;;;;;11.13;82.99;97550.63;5061629;28;20109;-74
2022/05/27 04:48:02;;;;;;;6.25;4.13;;;;;;;11.12;82.80;97552.44;5060781;28;20048;-72
2022/05/27 04:50:27;;;;;;;5.28;3.78;;;;;;;11.13;82.83;97556.78;5058983;28;20040;-73
2022/05/27 04:52:51;;;;;;;5.25;4.18;;;;;;;11.16;83.30;97555.63;5059671;28;20047;-73
2022/05/27 04:55:17;;;;;;;5.63;4.07;;;;;;;11.23;83.00;97548.63;5063192;28;20044;-68
2022/05/27 04:57:50;;;;;;;4.70;3.92;;;;;;;11.34;82.88;97547.47;5060610;28;20435;-69
2022/05/27 05:00:22;;;;;;;4.95;3.88;;;;;;;11.42;82.23;97561.66;5056852;28;20052;-69
2022/05/27 05:02:47;;;;;;;5.38;4.25;;;;;;;11.39;81.88;97553.16;5056452;28;20093;-68
2022/05/27 05:05:15;;;;;;;6.72;4.20;;;;;;;11.41;81.79;97548.47;5057292;28;20440;-70
2022/05/27 05:07:41;;;;;;;4.72;3.97;;;;;;;11.36;81.75;97556.97;5056739;28;20486;-69
2022/05/27 05:10:10;;;;;;;6.22;4.38;;;;;;;11.34;81.66;97560.81;5058164;28;20044;-68
2022/05/27 05:12:36;;;;;;;5.70;4.22;;;;;;;11.28;81.80;97559.66;5056833;28;20518;-67
2022/05/27 05:15:00;;;;;;;6.40;4.45;;;;;;;11.22;81.92;97562.97;5056512;28;20579;-68
2022/05/27 05:17:25;;;;;;;9.20;5.28;;;;;;;11.18;82.13;97559.78;5056474;28;20040;-67
2022/05/27 05:19:53;;;;;;;6.53;4.75;;;;;;;11.23;81.97;97573.47;5056363;28;20047;-68
2022/05/27 05:22:18;;;;;;;5.28;4.35;;;;;;;11.29;82.29;97561.28;5073360;28;20127;-68
2022/05/27 05:24:44;;;;;;;6.38;5.15;;;;;;;11.37;81.76;97565.81;5039870;28;20135;-68
2022/05/27 05:27:08;;;;;;;5.53;4.20;;;;;;;11.49;81.50;97567.16;5073335;28;20060;-67
2022/05/27 05:29:33;;;;;;;4.95;4.10;;;;;;;11.59;81.67;97566.00;5059162;28;20048;-67
2022/05/27 05:31:58;;;;;;;4.80;4.28;;;;;;;11.76;81.28;97566.84;5078374;28;20077;-68
2022/05/27 05:34:22;;;;;;;5.75;4.35;;;;;;;12.06;81.37;97572.53;5059174;28;20208;-68
2022/05/27 05:36:47;;;;;;;4.95;4.10;;;;;;;12.32;80.22;97567.78;5059732;28;20410;-67
2022/05/27 05:39:12;;;;;;;4.82;4.00;;;;;;;13.00;80.84;97561.81;5059359;28;20040;-67
2022/05/27 05:41:39;;;;;;;5.28;3.90;;;;;;;13.91;78.06;97561.84;5042189;28;20506;-67
2022/05/27 05:44:07;;;;;;;6.93;3.83;;;;;;;14.80;72.51;97565.44;5077511;28;20120;-68
2022/05/27 05:46:34;;;;;;;5.68;3.88;;;;;;;15.40;68.90;97567.81;5058740;28;20039;-68
2022/05/27 05:49:00;;;;;;;4.85;3.90;;;;;;;15.61;67.97;97567.03;5058948;28;20048;-68
2022/05/27 05:51:24;;;;;;;3.38;3.08;;;;;;;15.47;66.49;97567.88;5059291;28;20173;-67
2022/05/27 05:53:49;;;;;;;3.60;3.28;;;;;;;15.22;67.27;97572.81;5077253;28;20138;-67
2022/05/27 05:56:14;;;;;;;4.32;3.88;;;;;;;14.90;67.14;97574.88;5059182;28;20126;-66
2022/05/27 05:58:39;;;;;;;4.88;3.72;;;;;;;14.53;67.23;97583.88;5075634;28;20057;-69
2022/05/27 06:01:04;;;;;;;4.57;3.92;;;;;;;14.33;69.14;97579.22;5077280;28;20043;-68
2022/05/27 06:03:28;;;;;;;4.53;3.75;;;;;;;14.09;69.09;97580.28;5076714;28;20051;-69
2022/05/27 06:05:53;;;;;;;6.70;3.85;;;;;;;13.82;69.37;97581.69;5077031;28;20046;-69
2022/05/27 06:08:18;;;;;;;6.07;4.05;;;;;;;13.58;70.06;97588.06;5041504;28;20051;-69
2022/05/27 06:10:43;;;;;;;3.97;3.58;;;;;;;13.52;70.93;97587.97;5077155;28;20039;-68
2022/05/27 06:13:08;;;;;;;5.47;4.00;;;;;;;13.55;70.79;97588.41;5076816;28;20051;-70
2022/05/27 06:15:33;;;;;;;5.57;3.35;;;;;;;13.82;69.92;97585.22;5041666;28;20039;-69
2022/05/27 06:17:59;;;;;;;4.43;3.85;;;;;;;14.08;69.48;97584.00;5058418;28;20039;-68
2022/05/27 06:20:24;;;;;;;4.18;3.53;;;;;;;14.11;66.79;97587.13;5058555;28;20136;-70
2022/05/27 06:22:49;;;;;;;6.80;4.93;;;;;;;13.92;66.95;97593.00;5033908;28;20114;-70
2022/05/27 06:25:14;;;;;;;5.10;4.10;;;;;;;13.69;67.69;97593.00;5018038;28;20496;-70
2022/05/27 06:27:38;;;;;;;5.28;3.97;;;;;;;13.48;68.87;97597.34;5017629;28;20143;-69
2022/05/27 06:35:32;;;;;;;8.02;3.60;;;;;;;13.23;68.90;97608.19;5033798;28;20048;-68
2022/05/27 06:37:56;;;;;;;4.55;3.70;;;;;;;13.26;69.43;97604.34;5000721;28;20601;-69
2022/05/27 06:40:21;;;;;;;3.40;3.10;;;;;;;13.38;69.82;97610.97;4983267;28;20522;-68
2022/05/27 06:42:46;;;;;;;3.92;3.40;;;;;;;13.52;69.22;97602.19;5016822;28;20466;-67
2022/05/27 06:45:13;;;;;;;4.97;4.03;;;;;;;13.94;69.60;97620.44;5018856;28;20044;-67
2022/05/27 06:47:38;;;;;;;4.85;3.97;;;;;;;14.34;67.31;97623.75;5035341;28;20057;-68
2022/05/27 06:50:03;;;;;;;3.83;3.20;;;;;;;14.51;66.17;97620.78;5035391;28;20052;-69
2022/05/27 06:52:28;;;;;;;3.78;3.35;;;;;;;14.54;65.63;97627.63;5035176;28;20036;-68
2022/05/27 06:54:53;;;;;;;3.80;3.28;;;;;;;14.64;65.81;97628.19;5039613;28;20063;-67
2022/05/27 06:57:18;;;;;;;5.18;3.58;;;;;;;14.98;65.20;97629.47;5076220;28;20039;-66
2022/05/27 06:59:43;;;;;;;5.32;3.25;;;;;;;15.66;63.54;97623.72;5058082;28;20039;-66
2022/05/27 07:02:08;;;;;;;3.60;3.20;;;;;;;16.37;61.58;97626.38;5075967;28;20051;-66
2022/05/27 07:04:32;;;;;;;3.17;2.90;;;;;;;16.96;60.93;97626.81;5059246;28;20043;-68
2022/05/27 07:06:57;;;;;;;4.68;3.47;;;;;;;17.36;58.60;97619.78;5060078;28;20050;-66
2022/05/27 07:09:23;;;;;;;3.45;3.13;;;;;;;17.64;56.33;97623.19;5078507;28;20498;-67
2022/05/27 07:11:51;;;;;;;3.15;2.85;;;;;;;17.81;53.95;97620.97;5061771;28;20054;-67
2022/05/27 07:14:17;;;;;;;3.05;2.75;;;;;;;17.84;54.33;97625.09;5059523;28;20123;-66
2022/05/27 07:16:44;;;;;;;3.80;2.92;;;;;;;17.64;54.61;97631.28;5062137;28;20039;-67
2022/05/27 07:19:09;;;;;;;3.20;2.88;;;;;;;17.42;54.76;97627.03;5059943;28;20036;-66
2022/05/27 07:21:39;;;;;;;3.15;2.83;;;;;;;17.32;55.48;97624.72;5043371;28;20047;-67
2022/05/27 07:24:04;;;;;;;3.30;3.00;;;;;;;17.13;54.93;97619.25;5058915;28;20073;-67
2022/05/27 07:26:29;;;;;;;4.05;3.47;;;;;;;17.05;54.72;97623.75;5075296;28;20075;-67
2022/05/27 07:28:53;;;;;;;3.65;2.92;;;;;;;17.11;54.73;97619.44;5075446;28;20139;-65
2022/05/27 07:31:19;;;;;;;2.90;2.70;;;;;;;17.74;54.76;97617.41;5057241;28;20039;-67
2022/05/27 07:33:45;;;;;;;5.65;3.05;;;;;;;19.16;50.76;97618.59;5057203;28;20040;-66
2022/05/27 07:36:10;;;;;;;4.95;3.22;;;;;;;20.27;47.34;97616.31;5057004;28;20049;-67
2022/05/27 07:38:35;;;;;;;3.35;3.05;;;;;;;21.30;45.74;97613.88;5057715;28;20497;-66
2022/05/27 07:41:00;;;;;;;4.05;3.10;;;;;;;21.69;44.98;97617.13;5076731;28;20501;-68
2022/05/27 07:43:25;;;;;;;6.13;4.03;;;;;;;21.59;44.23;97612.25;5075955;28;20066;-66
2022/05/27 07:45:49;;;;;;;3.78;3.38;;;;;;;21.43;44.45;97620.19;5076200;28;20044;-72
2022/05/27 07:48:14;;;;;;;5.63;3.75;;;;;;;20.90;44.78;97623.47;5075970;28;20047;-74
2022/05/27 07:50:39;;;;;;;5.03;3.35;;;;;;;20.16;46.42;97619.72;5057348;28;20568;-68
2022/05/27 07:53:04;;;;;;;3.97;3.10;;;;;;;20.61;45.60;97619.59;5075062;28;20044;-65
2022/05/27 07:55:29;;;;;;;4.15;3.28;;;;;;;22.18;43.09;97631.47;5057660;28;20046;-67
2022/05/27 07:57:54;;;;;;;3.60;3.30;;;;;;;23.04;39.74;97630.84;5084468;28;20406;-75
2022/05/27 08:00:27;;;;;;;6.15;3.67;;;;;;;23.02;39.47;97642.00;5088237;28;20035;-75
2022/05/27 08:02:51;;;;;;;5.25;3.72;;;;;;;22.71;40.94;97642.28;5081924;28;20515;-73
2022/05/27 08:05:19;;;;;;;6.40;3.75;;;;;;;23.42;39.17;97639.31;5078771;28;20493;-74
2022/05/27 08:07:44;;;;;;;3.75;3.28;;;;;;;24.27;37.53;97651.34;5059761;28;20139;-74
2022/05/27 08:10:10;;;;;;;5.18;3.58;;;;;;;25.05;36.59;97651.28;5060444;28;20035;-72
2022/05/27 08:12:37;;;;;;;5.10;3.15;;;;;;;25.06;36.18;97643.91;5045801;28;20047;-73
2022/05/27 08:15:03;;;;;;;3.78;3.30;;;;;;;24.50;36.29;97643.84;5063933;28;20070;-73
2022/05/27 08:17:28;;;;;;;3.47;3.08;;;;;;;23.74;37.06;97644.31;5069923;28;20043;-74
2022/05/27 08:19:53;;;;;;;4.75;3.42;;;;;;;22.95;39.07;97648.59;5089928;28;20042;-75
2022/05/27 08:22:18;;;;;;;3.67;3.28;;;;;;;22.08;39.90;97635.59;5088415;28;20043;-67
2022/05/27 08:24:43;;;;;;;3.40;3.10;;;;;;;21.40;41.50;97634.19;5058486;28;20039;-67
2022/05/27 08:27:08;;;;;;;3.35;2.85;;;;;;;20.82;42.17;97642.72;5049825;28;20062;-67
2022/05/27 08:29:33;;;;;;;3.35;3.05;;;;;;;19.98;42.95;97645.88;5053519;28;20426;-67
2022/05/27 08:31:58;;;;;;;5.65;3.65;;;;;;;19.71;43.43;97637.09;5036365;28;20074;-66
2022/05/27 08:39:51;;;;;;;8.23;3.40;;;;;;;20.25;43.38;97648.16;5054507;28;20498;-67
2022/05/27 08:42:31;;;;;;;4.80;3.50;;;;;;;20.59;42.20;97638.75;5054341;28;20046;-66
2022/05/27 08:45:08;;;;;;;3.67;3.15;;;;;;;20.64;42.31;97644.34;5054231;28;20052;-68
2022/05/27 08:47:42;;;;;;;4.13;3.67;;;;;;;20.48;42.34;97647.59;5036009;28;20040;-68
2022/05/27 08:50:24;;;;;;;5.90;3.30;;;;;;;20.33;42.64;97643.53;5054026;28;20407;-68
2022/05/27 08:52:57;;;;;;;3.72;3.35;;;;;;;19.98;43.86;97645.88;5054182;28;20066;-67
2022/05/27 09:01:19;;;;;;;5.13;4.20;;;;;;;18.40;46.33;97653.34;5053499;28;20079;-67
2022/05/27 09:03:54;;;;;;;4.47;3.67;;;;;;;17.98;46.84;97653.75;5036325;28;20602;-67
2022/05/27 09:06:31;;;;;;;5.13;4.18;;;;;;;17.20;49.21;97655.09;5039964;28;20039;-67
2022/05/27 09:08:55;;;;;;;5.70;4.20;;;;;;;16.81;50.52;97656.56;5058797;28;20449;-68
2022/05/27 09:11:46;;;;;;;5.57;4.18;;;;;;;16.56;52.43;97663.38;5040021;28;20047;-67
2022/05/27 09:14:15;;;;;;;5.57;4.43;;;;;;;16.16;53.64;97684.56;5040423;28;20044;-67
2022/05/27 09:16:58;;;;;;;6.93;4.38;;;;;;;16.11;54.83;97676.25;5057541;28;20124;-67
2022/05/27 09:19:49;;;;;;;4.75;3.97;;;;;;;17.74;54.09;97677.53;5039321;28;20055;-68
2022/05/27 09:22:34;;;;;;;5.03;3.75;;;;;;;19.81;46.70;97673.44;5057677;28;20052;-67
2022/05/27 09:25:15;;;;;;;4.78;3.53;;;;;;;20.72;42.81;97669.47;5056243;28;20043;-66
2022/05/27 09:27:46;;;;;;;5.53;4.10;;;;;;;20.64;43.22;97668.72;5058424;28;20059;-68
2022/05/27 09:30:14;;;;;;;3.90;3.50;;;;;;;20.44;43.35;97664.50;5056255;28;20383;-67
2022/05/27 09:33:12;;;;;;;7.43;3.45;;;;;;;21.21;43.11;97658.59;5040019;28;20047;-67
2022/05/27 09:35:41;;;;;;;3.38;3.10;;;;;;;23.64;38.84;97655.84;5000939;28;20467;-66
2022/05/27 09:38:08;;;;;;;4.00;3.10;;;;;;;26.09;34.05;97664.88;5057697;28;20044;-68
2022/05/27 09:40:53;;;;;;;4.50;3.92;;;;;;;26.91;33.32;97671.94;5056027;28;20043;-67
2022/05/27 09:43:28;;;;;;;3.92;3.47;;;;;;;26.07;32.81;97677.16;5057182;28;20055;-67
2022/05/27 09:46:00;;;;;;;4.43;3.35;;;;;;;24.73;34.12;97678.25;5022666;28;20036;-67
2022/05/27 09:48:26;;;;;;;3.50;2.92;;;;;;;23.32;36.60;97671.72;5055534;28;20470;-68
2022/05/27 09:50:50;;;;;;;5.30;3.40;;;;;;;22.34;38.44;97672.38;5055512;28;20040;-67
2022/05/27 09:53:27;;;;;;;3.53;2.92;;;;;;;21.65;39.24;97689.16;5039156;28;20055;-67
2022/05/27 09:55:57;;;;;;;3.65;3.17;;;;;;;20.46;42.07;97693.00;5055404;28;20138;-68
2022/05/27 09:58:25;;;;;;;3.75;3.08;;;;;;;19.63;44.29;97699.53;5056950;28;20590;-67
2022/05/27 10:00:50;;;;;;;6.07;3.10;;;;;;;18.98;46.74;97688.63;5055599;28;20070;-68
2022/05/27 10:03:36;;;;;;;5.35;2.60;;;;;;;18.62;47.56;97699.06;5038724;28;20192;-68
2022/05/27 10:06:06;;;;;;;3.63;2.88;;;;;;;17.63;51.85;97709.63;5056946;28;20082;-66
2022/05/27 10:08:34;;;;;;;5.57;3.25;;;;;;;16.88;54.93;97710.41;5022443;28;20097;-66
2022/05/27 10:11:19;;;;;;;5.05;3.10;;;;;;;16.49;57.49;97727.03;5056971;28;20047;-66
2022/05/27 10:13:45;;;;;;;5.38;3.42;;;;;;;15.99;58.78;97731.53;5055164;28;20090;-66
2022/05/27 10:16:20;;;;;;;4.03;3.17;;;;;;;15.78;60.37;97728.81;5055317;28;20048;-72
2022/05/27 10:18:45;;;;;;;5.18;3.60;;;;;;;15.46;61.70;97732.72;5055653;28;20036;-72
2022/05/27 10:21:20;;;;;;;5.15;3.40;;;;;;;15.28;63.22;97738.47;5055862;28;20040;-73
2022/05/27 10:23:54;;;;;;;6.15;3.25;;;;;;;14.96;63.76;97755.75;5056979;28;20131;-75
2022/05/27 10:26:33;;;;;;;4.40;3.80;;;;;;;14.75;64.35;97752.97;5039088;28;20528;-76
2022/05/27 10:29:11;;;;;;;3.92;3.20;;;;;;;14.61;65.64;97762.63;5004925;28;20653;-75
2022/05/27 10:31:37;;;;;;;4.25;2.85;;;;;;;14.15;65.38;97751.06;5022009;28;20134;-75
2022/05/27 10:34:03;;;;;;;5.25;2.60;;;;;;;13.81;65.00;97754.13;5021489;28;20078;-75
2022/05/27 10:36:51;;;;;;;2.92;1.98;;;;;;;13.60;66.71;97748.53;5056333;28;20545;-74
2022/05/27 10:39:29;;;;;;;2.92;2.28;;;;;;;13.25;66.63;97748.00;5005006;28;20047;-74
2022/05/27 10:42:05;;;;;;;4.78;2.28;;;;;;;13.13;67.72;97745.84;5056331;28;20078;-74
2022/05/27 10:44:48;;;;;;;2.72;2.13;;;;;;;13.01;68.75;97748.03;5056621;28;20044;-73
2022/05/27 10:47:36;;;;;;;2.28;1.58;;;;;;;12.94;69.53;97741.72;5061779;28;20046;-74
2022/05/27 10:50:21;;;;;;;4.20;1.90;;;;;;;12.75;69.36;97732.25;5028945;28;20052;-73
2022/05/27 10:53:22;;;;;;;7.72;1.60;;;;;;;12.60;69.63;97745.44;5044323;28;20063;-74
2022/05/27 10:55:58;;;;;;;2.20;1.23;;;;;;;12.64;69.61;97748.63;4974954;28;20480;-75
2022/05/27 11:04:34;;;;;;;3.40;2.28;;;;;;;12.81;69.75;97749.44;4974393;28;20400;-74
2022/05/27 11:07:14;;;;;;;3.53;2.47;;;;;;;12.84;69.32;97755.28;4957831;28;20046;-73
2022/05/27 11:10:22;;;;;;;3.30;2.45;;;;;;;13.47;71.02;97748.25;4941476;28;20054;-73
2022/05/27 11:15:52;;;;;;;2.83;2.20;;;;;;;14.34;67.33;97737.16;4974030;28;20619;-72
2022/05/27 11:18:29;;;;;;;4.03;2.78;;;;;;;14.73;66.73;97742.41;4941730;28;20050;-72
2022/05/27 11:21:05;;;;;;;3.97;2.60;;;;;;;14.79;65.04;97741.66;4957589;28;20052;-72
2022/05/27 11:23:35;;;;;;;2.72;2.40;;;;;;;14.97;65.22;97741.34;4941547;28;20205;-73
2022/05/27 11:26:32;;;;;;;3.50;2.42;;;;;;;15.27;64.62;97739.50;4963747;28;20514;-73
2022/05/27 11:29:09;;;;;;;3.33;2.17;;;;;;;15.33;64.57;97733.38;5009020;28;20431;-67
2022/05/27 11:31:46;;;;;;;3.28;2.45;;;;;;;15.55;62.87;97732.47;5040880;28;20043;-66
2022/05/27 11:34:28;;;;;;;2.90;2.20;;;;;;;15.68;62.42;97734.50;5051157;28;20052;-66
2022/05/27 11:36:53;;;;;;;4.38;2.53;;;;;;;15.77;62.77;97740.59;5054365;28;20044;-67
2022/05/27 11:39:57;;;;;;;4.25;2.50;;;;;;;15.77;62.82;97749.47;5025827;28;20065;-67
2022/05/27 11:42:44;;;;;;;4.03;2.13;;;;;;;15.38;63.41;97760.50;5055411;28;20044;-66
2022/05/27 11:45:21;;;;;;;3.72;2.05;;;;;;;15.15;64.35;97744.47;5047392;28;20494;-66
2022/05/27 11:47:59;;;;;;;3.08;2.58;;;;;;;15.07;65.36;97759.84;5048484;28;20077;-71
2022/05/27 11:50:43;;;;;;;4.28;1.85;;;;;;;14.99;66.50;97755.41;5060367;28;20051;-70
2022/05/27 11:53:45;;;;;;;3.00;2.45;;;;;;;15.09;65.95;97755.97;5058156;28;20096;-66
2022/05/27 11:56:18;;;;;;;4.75;2.90;;;;;;;15.18;65.50;97759.38;5057160;28;20043;-67
2022/05/27 11:59:18;;;;;;;4.07;2.60;;;;;;;15.50;64.70;97756.31;5029824;28;20035;-65
2022/05/27 12:02:00;;;;;;;4.18;2.65;;;;;;;15.64;63.66;97748.47;5045716;28;20057;-69
2022/05/27 12:04:41;;;;;;;7.20;3.85;;;;;;;15.73;63.67;97763.47;5040344;28;20044;-66
2022/05/27 12:07:06;;;;;;;2.38;1.95;;;;;;;15.68;63.02;97760.53;5056869;28;20055;-72
2022/05/27 12:09:35;;;;;;;3.38;2.00;;;;;;;15.73;63.58;97771.53;5048996;28;20063;-70
2022/05/27 12:12:07;;;;;;;4.20;1.65;;;;;;;15.65;62.40;97769.78;5049398;28;20530;-70
2022/05/27 12:14:39;;;;;;;2.67;2.45;;;;;;;15.67;62.75;97767.75;5065406;28;20040;-70
2022/05/27 12:17:09;;;;;;;2.70;2.30;;;;;;;15.72;63.20;97765.31;5044736;28;20039;-68
2022/05/27 12:19:38;;;;;;;2.05;1.80;;;;;;;15.84;63.24;97762.97;5043964;28;20036;-70
2022/05/27 12:22:03;;;;;;;1.63;1.50;;;;;;;15.95;62.13;97770.56;5061501;28;20052;-69
2022/05/27 12:24:48;;;;;;;1.50;1.40;;;;;;;16.12;61.36;97763.94;5056402;28;20047;-68
2022/05/27 12:27:15;;;;;;;1.77;1.20;;;;;;;15.94;61.29;97769.72;5032567;28;20051;-70